createdAt,value
2022-09-20T00:01:59.958Z,92.99
2022-09-20T00:05:12.033Z,91.91
2022-09-20T00:08:25.395Z,92.31
2022-09-20T00:11:37.188Z,91.88
2022-09-20T00:14:45.712Z,91.29
2022-09-20T00:17:54.025Z,91.48
2022-09-20T00:21:03.204Z,91.42
2022-09-20T00:24:13.832Z,91.32
2022-09-20T00:27:25.144Z,92.09
2022-09-20T00:30:34.622Z,91.93
2022-09-20T00:33:57.335Z,91.80
2022-09-20T00:37:04.168Z,91.76
2022-09-20T00:40:17.100Z,91.87
2022-09-20T00:43:38.715Z,91.92
2022-09-20T00:46:48.492Z,91.45
2022-09-20T00:50:02.272Z,91.40
2022-09-20T00:53:14.200Z,91.03
2022-09-20T00:56:25.933Z,90.24
2022-09-20T00:59:36.208Z,90.69
2022-09-20T01:02:47.135Z,89.83
2022-09-20T01:05:55.457Z,89.23
2022-09-20T01:09:05.407Z,89.61
2022-09-20T01:12:19.418Z,89.41
2022-09-20T01:15:28.987Z,89.51
2022-09-20T01:18:36.448Z,89.46
2022-09-20T01:21:43.306Z,90.31
2022-09-20T01:24:59.402Z,90.06
2022-09-20T01:28:08.140Z,90.23
2022-09-20T01:31:19.183Z,89.47
2022-09-20T01:34:31.309Z,89.67
2022-09-20T01:37:49.353Z,89.86
2022-09-20T01:41:04.870Z,90.00
2022-09-20T01:44:23.695Z,88.68
2022-09-20T01:47:36.212Z,88.82
2022-09-20T01:50:56.949Z,88.58
2022-09-20T01:54:37.221Z,88.23
2022-09-20T01:58:17.959Z,89.17
2022-09-20T02:02:10.407Z,90.28
2022-09-20T02:05:41.108Z,90.06
2022-09-20T02:09:14.074Z,88.72
2022-09-20T02:12:50.925Z,89.78
2022-09-20T02:16:27.512Z,89.85
2022-09-20T02:20:04.692Z,89.54
2022-09-20T02:23:30.093Z,89.07
2022-09-20T02:26:42.108Z,88.72
2022-09-20T02:29:57.808Z,89.22
2022-09-20T02:33:13.629Z,89.19
2022-09-20T02:36:28.121Z,89.79
2022-09-20T02:39:37.384Z,89.34
2022-09-20T02:42:46.056Z,88.44
2022-09-20T02:45:59.909Z,88.21
2022-09-20T02:49:08.914Z,87.66
2022-09-20T02:52:21.766Z,87.77
2022-09-20T02:55:36.785Z,87.25
2022-09-20T02:58:53.105Z,87.11
2022-09-20T03:02:07.334Z,86.49
2022-09-20T03:05:18.290Z,86.62
2022-09-20T03:08:32.876Z,87.26
2022-09-20T03:11:47.254Z,87.78
2022-09-20T03:15:01.356Z,88.09
2022-09-20T03:18:11.196Z,88.85
2022-09-20T03:21:28.928Z,89.54
2022-09-20T03:24:43.146Z,90.12
2022-09-20T03:27:55.952Z,89.56
2022-09-20T03:31:06.794Z,88.96
2022-09-20T03:34:22.053Z,88.52
2022-09-20T03:37:40.842Z,88.68
2022-09-20T03:41:16.243Z,88.41
2022-09-20T03:44:42.413Z,88.51
2022-09-20T03:48:15.001Z,88.53
2022-09-20T03:51:33.589Z,88.20
2022-09-20T03:55:20.861Z,88.69
2022-09-20T03:58:35.424Z,87.98
2022-09-20T04:01:54.836Z,87.51
2022-09-20T04:05:01.954Z,86.72
2022-09-20T04:08:19.002Z,86.71
2022-09-20T04:11:30.384Z,86.97
2022-09-20T04:14:39.165Z,87.18
2022-09-20T04:17:50.122Z,87.54
2022-09-20T04:21:01.639Z,87.30
2022-09-20T04:24:12.589Z,86.88
2022-09-20T04:27:21.450Z,87.18
2022-09-20T04:30:27.719Z,87.75
2022-09-20T04:33:35.832Z,87.40
2022-09-20T04:36:57.648Z,87.53
2022-09-20T04:40:10.898Z,87.80
2022-09-20T04:43:51.171Z,88.17
2022-09-20T04:47:18.458Z,88.60
2022-09-20T04:50:56.918Z,89.13
2022-09-20T04:54:25.866Z,89.33
2022-09-20T04:57:53.898Z,89.83
2022-09-20T05:01:32.256Z,90.39
2022-09-20T05:05:14.370Z,90.44
2022-09-20T05:08:58.818Z,90.03
2022-09-20T05:12:37.953Z,90.76
2022-09-20T05:15:44.327Z,91.25
2022-09-20T05:19:14.232Z,90.52
2022-09-20T05:22:37.380Z,90.71
2022-09-20T05:25:52.705Z,90.97
2022-09-20T05:29:02.404Z,91.06
2022-09-20T05:32:13.890Z,90.92
2022-09-20T05:35:23.850Z,91.44
2022-09-20T05:38:34.198Z,91.83
2022-09-20T05:41:46.760Z,91.60
2022-09-20T05:44:58.783Z,92.14
2022-09-20T05:48:12.884Z,92.14
2022-09-20T05:51:28.825Z,92.82
2022-09-20T05:54:48.522Z,92.53
2022-09-20T05:58:06.673Z,92.76
2022-09-20T06:01:15.950Z,92.15
2022-09-20T06:04:24.745Z,91.44
2022-09-20T06:07:39.872Z,90.93
2022-09-20T06:11:01.516Z,90.66
2022-09-20T06:14:23.464Z,90.36
2022-09-20T06:17:29.525Z,89.01
2022-09-20T06:20:38.285Z,88.27
2022-09-20T06:23:41.398Z,88.10
2022-09-20T06:26:45.378Z,87.61
2022-09-20T06:29:54.122Z,86.44
2022-09-20T06:32:59.158Z,85.75
2022-09-20T06:36:21.829Z,85.04
2022-09-20T06:39:51.402Z,83.78
2022-09-20T06:42:54.901Z,82.77
2022-09-20T06:45:58.952Z,79.25
2022-09-20T06:49:02.112Z,76.16
2022-09-20T06:52:06.457Z,72.56
2022-09-20T06:55:18.332Z,67.34
2022-09-20T06:58:20.987Z,59.98
2022-09-20T07:01:30.102Z,53.72
2022-09-20T07:04:34.169Z,51.26
2022-09-20T07:07:36.800Z,48.69
2022-09-20T07:10:39.822Z,49.70
2022-09-20T07:13:42.852Z,52.99
2022-09-20T07:16:46.881Z,58.26
2022-09-20T07:19:52.106Z,61.27
2022-09-20T07:22:56.634Z,64.95
2022-09-20T07:26:01.916Z,66.79
2022-09-20T07:29:08.356Z,68.92
2022-09-20T07:32:15.624Z,71.03
2022-09-20T07:35:20.643Z,72.32
2022-09-20T07:38:25.789Z,72.80
2022-09-20T07:41:32.161Z,73.74
2022-09-20T07:44:37.177Z,74.33
2022-09-20T07:47:47.084Z,74.87
2022-09-20T07:50:55.690Z,74.94
2022-09-20T07:54:00.449Z,75.00
2022-09-20T07:57:05.998Z,75.72
2022-09-20T08:00:13.495Z,74.84
2022-09-20T08:03:19.896Z,73.97
2022-09-20T08:06:25.047Z,74.30
2022-09-20T08:09:30.212Z,73.00
2022-09-20T08:16:04.201Z,73.31
2022-09-20T08:19:13.163Z,73.73
2022-09-20T08:22:20.703Z,73.17
2022-09-20T08:25:25.707Z,74.29
2022-09-20T08:28:30.771Z,75.10
2022-09-20T08:31:38.758Z,74.50
2022-09-20T08:34:49.343Z,72.84
2022-09-20T08:39:57.286Z,73.17
2022-09-20T08:41:29.137Z,71.66
2022-09-20T08:44:38.532Z,69.17
2022-09-20T08:47:58.366Z,68.68
2022-09-20T08:51:06.683Z,67.06
2022-09-20T08:54:16.638Z,68.13
2022-09-20T08:57:23.202Z,66.45
2022-09-20T09:00:31.100Z,65.37
2022-09-20T09:03:36.574Z,65.80
2022-09-20T09:06:44.756Z,67.53
2022-09-20T09:09:51.719Z,68.61
2022-09-20T09:12:58.371Z,69.46
2022-09-20T09:16:07.331Z,70.56
2022-09-20T09:19:33.335Z,70.07
2022-09-20T09:22:43.105Z,71.34
2022-09-20T09:25:45.845Z,70.00
2022-09-20T09:29:03.720Z,66.11
2022-09-20T09:32:22.052Z,67.59
2022-09-20T09:35:30.359Z,65.91
2022-09-20T09:38:36.767Z,63.70
2022-09-20T09:41:39.373Z,64.53
2022-09-20T09:44:41.989Z,65.69
2022-09-20T09:47:45.942Z,64.13
2022-09-20T09:50:48.956Z,64.65
2022-09-20T09:53:55.047Z,63.34
2022-09-20T09:57:10.928Z,63.16
2022-09-20T10:00:21.895Z,63.99
2022-09-20T10:03:33.518Z,63.72
2022-09-20T10:06:49.395Z,64.12
2022-09-20T10:10:08.980Z,63.40
2022-09-20T10:13:21.625Z,63.23
2022-09-20T10:16:34.381Z,63.78
2022-09-20T10:19:57.288Z,63.09
2022-09-20T10:26:49.324Z,59.91
2022-09-20T10:30:09.821Z,61.17
2022-09-20T10:33:25.220Z,60.44
2022-09-20T10:36:33.070Z,59.51
2022-09-20T10:39:37.842Z,60.38
2022-09-20T10:43:05.225Z,60.97
2022-09-20T10:46:33.666Z,60.54
2022-09-20T10:49:43.050Z,60.42
2022-09-20T10:52:59.971Z,59.12
2022-09-20T10:56:17.875Z,60.85
2022-09-20T10:59:33.915Z,61.24
2022-09-20T11:02:47.243Z,59.45
2022-09-20T11:06:00.637Z,58.38
2022-09-20T11:09:05.709Z,59.87
2022-09-20T11:12:16.237Z,56.66
2022-09-20T11:15:24.726Z,54.56
2022-09-20T11:18:35.685Z,55.76
2022-09-20T11:21:43.057Z,55.83
2022-09-20T11:24:51.344Z,56.26
2022-09-20T11:27:58.169Z,57.29
2022-09-20T11:31:08.288Z,55.20
2022-09-20T11:34:18.466Z,54.05
2022-09-20T11:37:24.022Z,55.41
2022-09-20T11:40:32.752Z,55.86
2022-09-20T11:43:36.685Z,55.98
2022-09-20T11:46:47.785Z,55.80
2022-09-20T11:50:17.627Z,53.65
2022-09-20T11:53:37.444Z,54.46
2022-09-20T11:56:40.357Z,55.06
2022-09-20T11:59:44.685Z,54.88
2022-09-20T12:02:51.999Z,54.06
2022-09-20T12:06:00.734Z,52.60
2022-09-20T12:09:06.697Z,52.46
2022-09-20T12:12:21.286Z,52.50
2022-09-20T12:15:26.273Z,51.95
2022-09-20T12:18:46.727Z,52.23
2022-09-20T12:22:19.092Z,49.36
2022-09-20T12:25:39.925Z,47.21
2022-09-20T12:28:44.735Z,48.15
2022-09-20T12:31:49.451Z,44.92
2022-09-20T12:34:53.492Z,44.48
2022-09-20T12:37:56.565Z,41.87
2022-09-20T12:41:01.461Z,43.36
2022-09-20T12:44:21.824Z,43.07
2022-09-20T12:47:27.908Z,43.97
2022-09-20T12:50:52.577Z,42.66
2022-09-20T12:54:08.581Z,41.25
2022-09-20T12:57:19.307Z,42.94
2022-09-20T13:00:34.057Z,43.72
2022-09-20T13:03:38.468Z,44.29
2022-09-20T13:06:42.589Z,41.21
2022-09-20T13:09:45.639Z,42.39
2022-09-20T13:12:52.622Z,43.48
2022-09-20T13:15:59.181Z,44.04
2022-09-20T13:19:07.225Z,44.63
2022-09-20T13:22:18.801Z,44.23
2022-09-20T13:25:24.633Z,45.85
2022-09-20T13:28:37.036Z,47.38
2022-09-20T13:31:42.067Z,48.24
2022-09-20T13:34:49.994Z,49.63
2022-09-20T13:37:59.737Z,50.30
2022-09-20T13:41:10.241Z,51.11
2022-09-20T13:44:19.105Z,51.69
2022-09-20T13:47:26.313Z,52.22
2022-09-20T13:50:34.294Z,52.91
2022-09-20T13:53:42.272Z,52.67
2022-09-20T13:56:47.694Z,54.10
2022-09-20T13:59:54.624Z,55.69
2022-09-20T14:03:00.979Z,57.15
2022-09-20T14:06:12.617Z,57.28
2022-09-20T14:09:26.537Z,58.15
2022-09-20T14:12:34.762Z,56.95
2022-09-20T14:15:43.315Z,56.48
2022-09-20T14:18:50.803Z,56.27
2022-09-20T14:21:55.880Z,57.00
2022-09-20T14:25:04.557Z,59.04
2022-09-20T14:28:19.407Z,57.92
2022-09-20T14:31:27.587Z,59.45
2022-09-20T14:34:32.883Z,59.51
2022-09-20T14:37:45.024Z,60.09
2022-09-20T14:40:52.137Z,59.32
2022-09-20T14:43:59.569Z,58.99
2022-09-20T14:47:16.816Z,59.31
2022-09-20T14:50:30.691Z,60.17
2022-09-20T14:53:38.571Z,59.33
2022-09-20T14:56:53.338Z,58.80
2022-09-20T14:59:59.670Z,57.40
2022-09-20T15:03:12.705Z,54.63
2022-09-20T15:06:17.658Z,54.00
2022-09-20T15:09:23.671Z,53.32
2022-09-20T15:12:29.965Z,50.03
2022-09-20T15:15:35.007Z,52.53
2022-09-20T15:18:42.898Z,52.75
2022-09-20T15:21:48.166Z,53.17
2022-09-20T15:24:52.967Z,52.39
2022-09-20T15:27:59.737Z,51.31
2022-09-20T15:31:04.825Z,52.18
2022-09-20T15:34:09.636Z,52.52
2022-09-20T15:37:14.836Z,52.01
2022-09-20T15:40:19.831Z,51.73
2022-09-20T15:43:27.665Z,50.79
2022-09-20T15:46:33.198Z,49.81
2022-09-20T15:49:37.591Z,51.27
2022-09-20T15:52:44.200Z,51.25
2022-09-20T15:55:49.016Z,51.15
2022-09-20T15:58:59.690Z,52.36
2022-09-20T16:02:04.693Z,51.11
2022-09-20T16:05:11.244Z,51.18
2022-09-20T16:08:16.183Z,51.28
2022-09-20T16:11:23.230Z,52.53
2022-09-20T16:14:29.799Z,52.65
2022-09-20T16:17:51.179Z,54.53
2022-09-20T16:20:56.134Z,53.68
2022-09-20T16:24:01.393Z,54.75
2022-09-20T16:27:10.215Z,55.46
2022-09-20T16:30:20.625Z,57.28
2022-09-20T16:33:25.833Z,57.69
2022-09-20T16:36:30.719Z,57.58
2022-09-20T16:39:35.995Z,60.66
2022-09-20T16:42:42.702Z,61.90
2022-09-20T16:45:49.124Z,64.22
2022-09-20T16:48:55.130Z,63.48
2022-09-20T16:52:00.193Z,63.74
2022-09-20T16:55:05.560Z,63.27
2022-09-20T16:58:11.567Z,63.01
2022-09-20T17:01:20.898Z,64.00
2022-09-20T17:04:25.865Z,63.59
2022-09-20T17:07:30.890Z,64.91
2022-09-20T17:10:35.471Z,66.83
2022-09-20T17:13:41.905Z,67.79
2022-09-20T17:16:49.787Z,69.00
2022-09-20T17:19:55.338Z,70.21
2022-09-20T17:23:00.349Z,70.07
2022-09-20T17:26:07.332Z,69.30
2022-09-20T17:29:14.490Z,69.29
2022-09-20T17:32:21.142Z,70.87
2022-09-20T17:35:26.152Z,71.43
2022-09-20T17:38:32.204Z,71.29
2022-09-20T17:41:37.280Z,71.49
2022-09-20T17:44:42.130Z,71.42
2022-09-20T17:47:48.497Z,72.83
2022-09-20T17:50:59.617Z,73.43
2022-09-20T17:54:04.674Z,73.99
2022-09-20T17:57:09.650Z,73.98
2022-09-20T18:00:14.922Z,74.55
2022-09-20T18:03:22.835Z,74.54
2022-09-20T18:06:29.027Z,75.10
2022-09-20T18:09:34.099Z,75.76
2022-09-20T18:12:39.309Z,76.02
2022-09-20T18:15:46.187Z,76.26
2022-09-20T18:18:53.173Z,76.30
2022-09-20T18:21:58.091Z,76.38
2022-09-20T18:25:04.778Z,76.97
2022-09-20T18:28:09.992Z,76.51
2022-09-20T18:31:14.818Z,77.75
2022-09-20T18:34:22.918Z,78.30
2022-09-20T18:37:31.045Z,78.95
2022-09-20T18:40:37.233Z,79.03
2022-09-20T18:43:44.662Z,79.24
2022-09-20T18:46:52.859Z,79.56
2022-09-20T18:49:59.760Z,79.46
2022-09-20T18:53:07.677Z,79.73
2022-09-20T18:56:21.674Z,79.51
2022-09-20T18:59:29.049Z,80.21
2022-09-20T19:03:01.650Z,79.55
2022-09-20T19:06:13.241Z,80.26
2022-09-20T19:09:26.559Z,80.37
2022-09-20T19:12:36.851Z,80.65
2022-09-20T19:16:04.886Z,80.57
2022-09-20T19:19:48.109Z,80.52
2022-09-20T19:23:07.119Z,81.30
2022-09-20T19:26:21.002Z,81.28
2022-09-20T19:29:28.120Z,80.86
2022-09-20T19:32:34.888Z,81.30
2022-09-20T19:35:46.170Z,81.13
2022-09-20T19:39:04.217Z,81.67
2022-09-20T19:42:16.972Z,82.41
2022-09-20T19:45:33.096Z,81.76
2022-09-20T19:48:41.695Z,82.37
2022-09-20T19:51:46.966Z,82.95
2022-09-20T19:54:54.555Z,82.94
2022-09-20T19:57:59.865Z,83.19
2022-09-20T20:01:05.919Z,83.02
2022-09-20T20:04:11.600Z,82.53
2022-09-20T20:07:28.150Z,83.58
2022-09-20T20:10:44.401Z,83.22
2022-09-20T20:14:07.484Z,83.66
2022-09-20T20:17:25.616Z,83.70
2022-09-20T20:20:39.095Z,83.43
2022-09-20T20:23:58.340Z,83.07
2022-09-20T20:27:18.698Z,83.02
2022-09-20T20:30:23.389Z,82.60
2022-09-20T20:33:28.076Z,82.63
2022-09-20T20:36:33.509Z,82.46
2022-09-20T20:39:38.527Z,82.79
2022-09-20T20:42:44.896Z,83.56
2022-09-20T20:45:52.818Z,83.50
2022-09-20T20:48:58.940Z,83.93
2022-09-20T20:52:05.250Z,83.47
2022-09-20T20:55:11.126Z,83.95
2022-09-20T20:58:18.191Z,84.09
2022-09-20T21:01:24.686Z,84.23
2022-09-20T21:04:30.599Z,84.30
2022-09-20T21:07:35.170Z,84.17
2022-09-20T21:10:40.217Z,83.99
2022-09-20T21:13:48.965Z,83.72
2022-09-20T21:16:54.344Z,84.15
2022-09-20T21:20:01.164Z,84.40
2022-09-20T21:23:06.052Z,84.60
2022-09-20T21:26:13.031Z,84.04
2022-09-20T21:29:20.740Z,83.65
2022-09-20T21:32:25.556Z,84.83
2022-09-20T21:35:30.857Z,84.79
2022-09-20T21:38:36.826Z,84.68
2022-09-20T21:41:41.944Z,84.72
2022-09-20T21:44:48.430Z,84.52
2022-09-20T21:47:54.597Z,84.52
2022-09-20T21:51:06.874Z,85.03
2022-09-20T21:54:12.190Z,84.74
2022-09-20T21:57:17.272Z,84.82
2022-09-20T22:00:25.088Z,84.91
2022-09-20T22:03:35.681Z,85.23
2022-09-20T22:06:41.930Z,85.76
2022-09-20T22:09:46.865Z,85.54
2022-09-20T22:12:51.925Z,85.97
2022-09-20T22:16:05.929Z,85.93
2022-09-20T22:19:12.535Z,85.85
2022-09-20T22:22:17.457Z,85.63
2022-09-20T22:25:22.522Z,85.89
2022-09-20T22:28:27.412Z,85.87
2022-09-20T22:31:34.830Z,85.66
2022-09-20T22:34:39.517Z,85.98
2022-09-20T22:37:44.765Z,86.10
2022-09-20T22:40:59.942Z,86.13
2022-09-20T22:44:04.713Z,86.15
2022-09-20T22:47:10.986Z,85.58
2022-09-20T22:50:15.998Z,85.90
2022-09-20T22:53:20.887Z,86.19
2022-09-20T22:56:29.130Z,86.47
2022-09-20T22:59:33.968Z,86.51
2022-09-20T23:02:39.983Z,86.71
2022-09-20T23:05:46.081Z,86.47
2022-09-20T23:08:53.551Z,85.87
2022-09-20T23:11:58.660Z,86.88
2022-09-20T23:15:03.771Z,87.44
2022-09-20T23:18:10.273Z,87.41
2022-09-20T23:21:17.799Z,86.56
2022-09-20T23:24:24.205Z,86.64
2022-09-20T23:27:29.323Z,87.10
2022-09-20T23:30:34.592Z,86.77
2022-09-20T23:33:46.621Z,86.53
2022-09-20T23:36:53.395Z,85.90
2022-09-20T23:39:58.462Z,85.57
2022-09-20T23:43:03.273Z,86.57
2022-09-20T23:46:10.643Z,87.66
2022-09-20T23:49:17.342Z,88.18
2022-09-20T23:52:22.395Z,87.75
2022-09-20T23:55:27.066Z,87.52
2022-09-20T23:58:32.586Z,86.56
